Time;durP1;ratioP1;P1;durP2;ratioP2;P2;SDS_P1;SDS_P2;PMS_P1;PMS_P2;Temp;Humidity;BMP_temperature;BMP_pressure;BME280_temperature;BME280_humidity;BME280_pressure;Samples;Min_cycle;Max_cycle;Signal;HPM_P1;HPM_P2
2023/06/13 00:01:07;;;;;;;7.38;3.08;;;;;;;21.07;28.01;100186.88;5002908;28;20443;-66
2023/06/13 00:03:33;;;;;;;8.63;3.90;;;;;;;21.06;27.86;100189.78;5019455;28;20120;-66
2023/06/13 00:06:01;;;;;;;9.38;3.65;;;;;;;21.02;28.05;100191.28;5019394;28;20179;-65
2023/06/13 00:08:31;;;;;;;8.10;3.30;;;;;;;21.20;28.39;100189.53;5002956;28;20044;-66
2023/06/13 00:11:00;;;;;;;13.05;3.25;;;;;;;21.21;28.07;100187.66;5019600;28;20056;-65
2023/06/13 00:13:26;;;;;;;12.55;3.20;;;;;;;20.80;28.41;100177.16;5019390;28;20056;-65
2023/06/13 00:15:58;;;;;;;6.95;2.92;;;;;;;21.10;28.41;100181.06;5018921;28;20098;-65
2023/06/13 00:18:29;;;;;;;10.70;3.47;;;;;;;21.11;28.55;100185.41;5019114;28;20060;-65
2023/06/13 00:20:55;;;;;;;6.03;3.10;;;;;;;20.86;28.52;100181.72;5003072;28;20044;-65
2023/06/13 00:23:22;;;;;;;7.70;3.35;;;;;;;20.95;28.68;100176.91;5051919;28;20048;-65
2023/06/13 00:25:50;;;;;;;11.00;3.78;;;;;;;20.91;28.35;100178.38;5014558;28;20053;-66
2023/06/13 00:28:16;;;;;;;10.20;4.05;;;;;;;20.92;28.61;100171.94;4981882;28;20053;-65
2023/06/13 00:30:43;;;;;;;12.70;3.30;;;;;;;20.78;28.78;100170.28;4998105;28;20192;-65
2023/06/13 00:33:11;;;;;;;15.68;4.60;;;;;;;20.84;29.01;100183.78;4997947;28;20136;-65
2023/06/13 00:35:40;;;;;;;;;;;;;;;21.27;28.43;100184.09;4998468;28;20045;-65
2023/06/13 00:38:07;;;;;;;13.85;4.13;;;;;;;20.66;28.72;100182.78;4997829;28;19985;-66
2023/06/13 00:40:33;;;;;;;6.85;3.50;;;;;;;20.86;28.51;100186.28;4978305;28;20058;-65
2023/06/13 00:42:59;;;;;;;11.02;3.80;;;;;;;20.63;29.11;100177.81;4962288;28;20532;-65
2023/06/13 00:45:27;;;;;;;7.95;2.78;;;;;;;20.82;28.88;100183.16;4962474;28;20117;-66
2023/06/13 00:47:57;;;;;;;6.30;2.75;;;;;;;20.86;29.02;100187.13;4978300;28;20160;-65
2023/06/13 00:50:30;;;;;;;9.05;3.40;;;;;;;20.81;29.08;100180.66;4962215;28;20057;-65
2023/06/13 00:53:09;;;;;;;8.30;3.70;;;;;;;20.95;29.05;100177.78;4946828;28;20061;-66
2023/06/13 00:55:37;;;;;;;5.25;2.97;;;;;;;20.72;29.37;100177.38;4947037;28;20053;-66
2023/06/13 00:58:06;;;;;;;11.13;3.50;;;;;;;20.75;29.02;100178.81;4946648;28;20047;-65
2023/06/13 01:00:34;;;;;;;12.05;3.47;;;;;;;20.80;29.28;100179.88;4962581;28;20054;-65
2023/06/13 01:03:06;;;;;;;9.30;3.40;;;;;;;20.61;29.38;100182.56;4962218;28;20050;-66
2023/06/13 01:05:38;;;;;;;6.78;3.38;;;;;;;20.86;29.34;100184.41;4963005;28;20053;-66
2023/06/13 01:08:08;;;;;;;17.75;3.90;;;;;;;20.78;29.29;100175.69;4946348;28;20112;-66
2023/06/13 01:10:34;;;;;;;15.80;3.67;;;;;;;20.61;29.31;100177.16;4978332;28;20136;-65
2023/06/13 01:13:13;;;;;;;7.80;3.13;;;;;;;20.56;29.37;100179.69;4961941;28;20050;-65
2023/06/13 01:16:06;;;;;;;7.38;3.10;;;;;;;20.99;29.32;100173.59;4994087;28;20052;-65
2023/06/13 01:18:35;;;;;;;12.90;3.63;;;;;;;20.68;29.64;100176.13;4998399;28;20048;-65
2023/06/13 01:21:02;;;;;;;10.27;3.30;;;;;;;20.64;29.38;100174.91;4996832;28;20136;-66
2023/06/13 01:23:49;;;;;;;6.00;3.22;;;;;;;20.93;29.20;100169.00;4981144;28;20053;-66
2023/06/13 01:27:05;;;;;;;8.73;3.47;;;;;;;20.88;29.55;100176.91;4982005;28;20053;-65
2023/06/13 01:29:34;;;;;;;12.48;3.40;;;;;;;20.60;29.61;100178.22;4936251;29;20187;-65
2023/06/13 01:32:00;;;;;;;9.98;3.60;;;;;;;20.55;29.76;100178.00;4904402;29;20373;-65
2023/06/13 01:34:27;;;;;;;8.75;3.95;;;;;;;20.42;29.77;100178.84;4936137;29;20082;-65
2023/06/13 01:36:52;;;;;;;9.68;3.80;;;;;;;20.31;29.93;100175.94;4933754;28;20064;-65
2023/06/13 01:39:18;;;;;;;10.93;4.32;;;;;;;20.42;29.84;100180.72;4981046;28;20045;-65
2023/06/13 01:41:44;;;;;;;9.35;3.60;;;;;;;20.33;29.87;100179.28;4964988;28;20140;-65
2023/06/13 01:44:15;;;;;;;8.02;3.97;;;;;;;20.48;29.75;100169.09;4997120;28;20152;-65
2023/06/13 01:47:21;;;;;;;11.88;4.13;;;;;;;20.78;29.58;100175.69;4997229;28;20038;-65
2023/06/13 01:50:02;;;;;;;7.05;3.58;;;;;;;20.62;29.81;100174.25;4919633;29;20043;-65
2023/06/13 01:52:37;;;;;;;9.13;3.70;;;;;;;20.51;29.96;100172.19;4936057;29;20488;-65
2023/06/13 01:55:05;;;;;;;6.40;3.50;;;;;;;20.39;30.22;100176.56;4954236;28;20066;-65
2023/06/13 01:57:36;;;;;;;7.30;3.50;;;;;;;20.53;30.29;100171.97;4971206;28;20052;-65
2023/06/13 02:00:04;;;;;;;12.10;4.22;;;;;;;20.37;30.36;100181.34;5034223;28;20499;-65
2023/06/13 02:02:41;;;;;;;9.35;3.90;;;;;;;20.36;30.25;100178.88;5035570;28;20037;-65
2023/06/13 02:05:08;;;;;;;14.30;3.22;;;;;;;20.32;30.18;100189.25;5034548;28;20095;-65
2023/06/13 02:07:36;;;;;;;8.55;3.50;;;;;;;20.25;30.34;100188.38;5050693;28;20118;-65
2023/06/13 02:10:06;;;;;;;9.07;3.28;;;;;;;20.58;30.29;100185.69;5001723;28;20048;-65
2023/06/13 02:12:33;;;;;;;7.43;3.30;;;;;;;20.33;30.29;100188.19;5017980;28;20136;-65
2023/06/13 02:15:02;;;;;;;12.43;3.53;;;;;;;20.39;30.61;100184.66;5017918;28;20056;-65
2023/06/13 02:17:34;;;;;;;5.28;3.30;;;;;;;20.22;30.59;100196.09;5018998;28;20131;-66
2023/06/13 02:20:06;;;;;;;10.82;3.78;;;;;;;20.28;30.45;100184.47;5002041;28;20345;-65
2023/06/13 02:22:33;;;;;;;7.45;3.67;;;;;;;20.28;30.49;100192.56;5018040;28;20468;-65
2023/06/13 02:25:03;;;;;;;7.25;3.53;;;;;;;20.37;30.54;100184.06;5034060;28;20041;-65
2023/06/13 02:27:31;;;;;;;8.25;3.40;;;;;;;20.27;30.71;100196.28;5030631;28;20050;-65
2023/06/13 02:29:57;;;;;;;7.80;3.72;;;;;;;20.31;30.56;100194.84;4981775;28;20082;-65
2023/06/13 02:32:24;;;;;;;7.10;3.13;;;;;;;20.29;30.57;100194.19;4998526;28;20443;-65
2023/06/13 02:34:52;;;;;;;7.63;3.42;;;;;;;20.22;30.83;100190.69;5018092;28;20049;-65
2023/06/13 02:37:20;;;;;;;12.07;3.97;;;;;;;20.33;30.62;100195.47;5017361;28;20041;-65
2023/06/13 02:39:46;;;;;;;9.35;3.88;;;;;;;20.42;30.57;100194.22;4985658;28;20045;-65
2023/06/13 02:42:14;;;;;;;7.65;3.50;;;;;;;20.45;30.59;100191.09;5034164;28;20041;-65
2023/06/13 02:44:41;;;;;;;9.52;3.70;;;;;;;20.49;30.68;100192.34;4985307;28;20045;-64
2023/06/13 02:47:08;;;;;;;8.18;3.55;;;;;;;20.55;30.50;100192.34;5001464;28;20045;-65
2023/06/13 02:49:34;;;;;;;9.10;3.55;;;;;;;20.58;30.40;100200.03;5001043;28;20052;-65
2023/06/13 02:52:00;;;;;;;8.98;3.67;;;;;;;20.57;30.50;100192.13;5017447;28;20057;-64
2023/06/13 02:54:26;;;;;;;13.65;3.88;;;;;;;20.61;30.47;100193.38;5017381;28;20141;-65
2023/06/13 02:56:52;;;;;;;14.27;4.30;;;;;;;20.73;30.31;100199.78;4984599;28;20547;-65
2023/06/13 02:59:19;;;;;;;7.85;4.10;;;;;;;20.73;30.55;100191.69;4984774;28;20037;-65
2023/06/13 03:01:46;;;;;;;7.68;3.88;;;;;;;20.83;30.39;100194.81;5001004;28;20056;-65
2023/06/13 03:04:12;;;;;;;7.20;3.53;;;;;;;20.85;30.39;100192.72;5017585;28;20056;-65
2023/06/13 03:06:40;;;;;;;9.75;3.80;;;;;;;20.89;30.05;100197.50;5000876;28;20123;-65
2023/06/13 03:09:09;;;;;;;12.38;3.50;;;;;;;20.91;30.33;100189.19;5001527;28;20037;-65
2023/06/13 03:11:36;;;;;;;8.05;3.30;;;;;;;20.93;29.96;100195.19;5000689;28;20111;-64
2023/06/13 03:14:02;;;;;;;11.82;3.90;;;;;;;21.02;30.14;100193.97;5000499;28;20052;-65
2023/06/13 03:16:29;;;;;;;9.27;3.92;;;;;;;21.07;30.08;100195.00;5000721;28;20053;-65
2023/06/13 03:19:00;;;;;;;8.80;3.50;;;;;;;21.18;29.99;100199.75;5001729;28;20041;-65
2023/06/13 03:21:25;;;;;;;7.05;3.30;;;;;;;21.17;29.81;100202.66;5016541;28;20136;-65
2023/06/13 03:23:55;;;;;;;11.20;3.92;;;;;;;21.52;29.80;100206.69;4984480;28;20041;-65
2023/06/13 03:26:25;;;;;;;7.68;3.35;;;;;;;21.34;29.58;100206.56;5016265;28;20433;-65
2023/06/13 03:28:52;;;;;;;15.43;3.22;;;;;;;21.41;29.50;100205.47;4999940;28;20455;-65
2023/06/13 03:31:18;;;;;;;8.85;2.97;;;;;;;21.46;29.56;100204.84;5019759;28;20102;-65
2023/06/13 03:33:44;;;;;;;9.93;4.75;;;;;;;21.57;29.43;100214.97;5020041;28;20045;-65
2023/06/13 03:36:10;;;;;;;7.45;3.25;;;;;;;21.63;29.24;100197.91;5053190;28;20037;-65
2023/06/13 03:38:37;;;;;;;7.47;3.20;;;;;;;21.68;29.17;100207.00;5019857;28;20483;-65
2023/06/13 03:41:02;;;;;;;11.70;3.13;;;;;;;21.76;29.50;100207.84;5019621;28;20037;-65
2023/06/13 03:43:28;;;;;;;8.73;3.08;;;;;;;21.80;29.21;100204.50;5019161;28;20389;-65
2023/06/13 03:45:54;;;;;;;9.05;3.08;;;;;;;21.95;29.19;100201.47;5019738;28;20045;-65
2023/06/13 03:48:22;;;;;;;8.38;3.08;;;;;;;22.05;28.99;100209.97;5019948;28;20041;-65
2023/06/13 03:50:48;;;;;;;9.85;3.00;;;;;;;22.18;28.75;100216.09;5019570;28;20048;-65
2023/06/13 03:53:14;;;;;;;8.77;3.33;;;;;;;22.29;28.63;100217.28;5019598;28;20049;-65
2023/06/13 03:55:40;;;;;;;7.90;3.13;;;;;;;22.29;28.24;100201.88;5019533;28;20040;-65
2023/06/13 03:58:06;;;;;;;8.73;2.72;;;;;;;22.31;28.03;100209.78;5019503;28;20048;-65
2023/06/13 04:00:41;;;;;;;10.88;2.75;;;;;;;22.59;28.11;100213.72;5003002;28;20140;-65
2023/06/13 04:03:16;;;;;;;10.45;2.35;;;;;;;22.48;27.65;100210.91;5019256;28;20059;-66
2023/06/13 04:06:09;;;;;;;6.82;2.70;;;;;;;23.24;26.90;100218.53;4966751;28;20064;-67
2023/06/13 04:08:35;;;;;;;9.88;2.67;;;;;;;23.17;26.41;100225.84;4998401;28;20058;-65
2023/06/13 04:11:06;;;;;;;15.75;3.00;;;;;;;23.81;26.30;100225.34;4997723;28;20485;-67
2023/06/13 04:13:33;;;;;;;7.30;2.65;;;;;;;23.85;26.05;100223.00;4998074;28;20139;-67
2023/06/13 04:16:00;;;;;;;7.40;2.40;;;;;;;23.92;25.51;100232.69;4998336;28;20438;-66
2023/06/13 04:18:27;;;;;;;6.78;2.30;;;;;;;24.19;25.36;100225.00;4981977;28;20460;-66
2023/06/13 04:20:55;;;;;;;4.20;2.60;;;;;;;24.40;24.86;100232.66;4998262;28;20088;-65
2023/06/13 04:23:21;;;;;;;6.00;2.55;;;;;;;24.57;24.25;100222.75;4987648;28;20082;-74
2023/06/13 04:25:49;;;;;;;6.35;2.38;;;;;;;24.76;24.40;100218.88;4940906;28;20526;-72
2023/06/13 04:28:17;;;;;;;8.50;2.58;;;;;;;24.88;24.12;100219.72;4974333;28;20058;-71
2023/06/13 04:30:46;;;;;;;8.65;2.63;;;;;;;25.09;23.84;100221.84;4974009;28;20498;-74
2023/06/13 04:33:17;;;;;;;6.70;2.45;;;;;;;25.22;23.93;100218.88;4974476;28;20054;-74
2023/06/13 04:35:44;;;;;;;10.53;2.60;;;;;;;25.33;24.04;100215.34;4957881;28;20058;-74
2023/06/13 04:38:13;;;;;;;7.32;2.35;;;;;;;25.47;23.30;100219.44;4954786;28;20296;-75
2023/06/13 04:40:40;;;;;;;7.90;2.08;;;;;;;25.25;23.33;100210.22;4957484;28;20551;-75
2023/06/13 04:43:06;;;;;;;6.20;1.92;;;;;;;25.44;23.17;100213.66;4974029;28;20058;-75
2023/06/13 04:45:33;;;;;;;5.60;2.35;;;;;;;25.62;23.26;100206.16;4941063;28;20042;-77
2023/06/13 04:48:01;;;;;;;8.90;2.75;;;;;;;25.60;23.17;100216.44;4958331;28;20070;-77
2023/06/13 04:50:31;;;;;;;;;;;;;;;26.01;22.23;100205.31;4936923;29;20083;-75
2023/06/13 04:52:57;;;;;;;3.85;1.67;;;;;;;25.66;22.57;100211.94;4935610;29;20447;-74
2023/06/13 04:55:32;;;;;;;5.35;2.10;;;;;;;25.52;22.39;100211.41;4955640;28;20054;-74
2023/06/13 04:57:59;;;;;;;4.25;1.73;;;;;;;25.58;22.41;100209.59;4960241;28;20045;-74
2023/06/13 05:00:25;;;;;;;6.75;2.40;;;;;;;25.82;21.94;100211.16;4943517;28;20077;-73
2023/06/13 05:02:52;;;;;;;7.18;2.00;;;;;;;25.99;21.56;100203.88;4975323;28;20099;-73
2023/06/13 05:05:18;;;;;;;4.95;1.90;;;;;;;26.20;21.74;100203.22;4943127;28;20049;-72
2023/06/13 05:07:47;;;;;;;5.63;2.00;;;;;;;26.48;21.67;100199.59;4975194;28;20057;-73
2023/06/13 05:10:14;;;;;;;5.10;2.08;;;;;;;26.57;21.12;100192.66;4959574;28;20355;-76
2023/06/13 05:12:40;;;;;;;8.00;2.38;;;;;;;26.49;21.37;100196.63;4964063;28;20091;-75
2023/06/13 05:15:06;;;;;;;6.95;1.80;;;;;;;26.48;21.02;100195.78;4977732;28;20038;-75
2023/06/13 05:17:33;;;;;;;9.52;2.13;;;;;;;26.33;21.39;100176.47;4979557;28;20048;-79
2023/06/13 05:19:59;;;;;;;6.32;1.90;;;;;;;26.05;21.50;100194.75;4980048;28;20490;-78
2023/06/13 05:22:25;;;;;;;7.57;1.75;;;;;;;25.89;21.51;100198.25;4997059;28;20671;-81
2023/06/13 05:24:59;;;;;;;7.85;1.73;;;;;;;26.00;21.62;100175.63;5015094;28;20103;-78
2023/06/13 05:27:26;;;;;;;3.28;1.60;;;;;;;26.12;21.73;100190.00;4984017;28;20113;-78
2023/06/13 05:29:52;;;;;;;4.65;1.50;;;;;;;26.00;21.46;100181.06;4996412;28;20084;-80
2023/06/13 05:32:18;;;;;;;8.90;2.60;;;;;;;26.06;22.56;100174.63;4989566;28;20517;-78
2023/06/13 05:34:44;;;;;;;8.52;1.85;;;;;;;26.18;22.18;100183.56;4979218;28;20053;-80
2023/06/13 05:37:10;;;;;;;10.45;2.00;;;;;;;26.22;21.87;100176.53;4978323;28;20111;-81
2023/06/13 05:39:39;;;;;;;5.40;1.45;;;;;;;25.88;21.14;100182.97;4995795;28;20107;-79
2023/06/13 05:42:05;;;;;;;6.13;1.63;;;;;;;26.07;21.20;100181.72;4979442;28;20386;-79
2023/06/13 05:44:32;;;;;;;12.52;2.28;;;;;;;25.79;20.88;100168.09;4979411;28;20157;-80
2023/06/13 05:46:58;;;;;;;5.13;2.05;;;;;;;26.10;21.92;100182.06;4978072;28;20704;-79
2023/06/13 05:49:25;;;;;;;8.52;2.17;;;;;;;26.41;20.96;100176.06;4979554;28;20091;-79
2023/06/13 05:51:53;;;;;;;17.70;1.75;;;;;;;26.30;20.69;100171.53;4978101;28;20042;-80
2023/06/13 05:54:19;;;;;;;5.43;1.83;;;;;;;26.58;20.13;100167.06;5011306;28;20103;-73
2023/06/13 05:56:46;;;;;;;9.43;1.52;;;;;;;26.32;20.37;100163.91;5026852;28;20063;-77
2023/06/13 05:59:18;;;;;;;6.28;1.80;;;;;;;26.52;20.33;100161.50;5030122;28;20099;-77
2023/06/13 06:01:45;;;;;;;7.70;2.03;;;;;;;26.86;20.62;100167.81;4995282;28;20517;-78
2023/06/13 06:04:11;;;;;;;4.63;1.90;;;;;;;26.45;20.41;100152.69;4995862;28;20053;-75
2023/06/13 06:06:37;;;;;;;10.70;2.97;;;;;;;26.87;20.98;100163.16;4937954;28;20043;-74
2023/06/13 06:09:04;;;;;;;6.40;2.40;;;;;;;27.08;19.74;100168.63;4937151;29;20157;-77
2023/06/13 06:11:31;;;;;;;13.65;2.30;;;;;;;27.26;19.34;100162.09;4937742;29;20146;-77
2023/06/13 06:13:58;;;;;;;9.93;2.53;;;;;;;27.24;19.44;100162.31;4921791;28;20117;-76
2023/06/13 06:16:24;;;;;;;3.50;1.60;;;;;;;27.10;19.24;100161.03;4913396;29;20107;-77
2023/06/13 06:18:53;;;;;;;11.98;2.30;;;;;;;27.51;19.74;100165.94;4890767;29;20055;-78
2023/06/13 06:21:21;;;;;;;9.65;1.67;;;;;;;25.91;20.00;100166.97;4938502;29;20055;-79
2023/06/13 06:23:47;;;;;;;6.32;1.88;;;;;;;26.22;19.65;100158.31;4922160;29;20089;-78
2023/06/13 06:26:13;;;;;;;7.90;1.50;;;;;;;26.58;19.87;100151.53;4906510;29;20074;-78
2023/06/13 06:28:41;;;;;;;10.95;1.75;;;;;;;26.92;19.25;100157.78;4906268;29;20814;-79
2023/06/13 06:31:09;;;;;;;4.45;1.50;;;;;;;26.49;19.15;100145.66;4884235;29;20093;-79
2023/06/13 06:33:36;;;;;;;9.45;1.63;;;;;;;27.33;18.96;100144.47;4884189;29;20221;-80
2023/06/13 06:36:03;;;;;;;11.65;2.13;;;;;;;27.75;18.81;100148.19;4902939;29;20508;-75
2023/06/13 06:38:30;;;;;;;6.20;2.30;;;;;;;27.86;18.75;100139.03;4931336;29;20142;-75
2023/06/13 06:41:01;;;;;;;10.10;3.03;;;;;;;28.11;18.35;100141.19;4917708;28;21318;-80
2023/06/13 06:43:29;;;;;;;;;;;;;;;28.41;18.68;100136.00;4931120;29;20147;-78
2023/06/13 06:45:57;;;;;;;13.30;1.73;;;;;;;28.01;17.28;100141.13;4967790;28;20289;-78
2023/06/13 06:48:23;;;;;;;12.82;2.17;;;;;;;28.05;17.32;100144.16;4965322;28;20054;-77
2023/06/13 06:50:49;;;;;;;11.55;1.60;;;;;;;27.76;16.93;100128.03;4942246;28;20773;-78
2023/06/13 06:53:16;;;;;;;11.27;1.70;;;;;;;27.79;17.29;100143.88;4959685;28;20492;-77
2023/06/13 06:55:43;;;;;;;2.97;1.33;;;;;;;27.34;17.95;100148.81;4949425;29;20568;-79
2023/06/13 06:58:12;;;;;;;7.13;1.73;;;;;;;27.34;17.94;100134.38;4918461;29;20055;-80
2023/06/13 07:00:38;;;;;;;9.52;1.98;;;;;;;27.76;17.81;100127.19;4934037;29;20039;-77
2023/06/13 07:03:06;;;;;;;9.07;1.85;;;;;;;28.08;17.62;100136.25;4933839;29;20575;-79
2023/06/13 07:05:37;;;;;;;7.93;1.90;;;;;;;28.21;17.53;100135.00;4933217;29;20079;-81
2023/06/13 07:08:10;;;;;;;15.23;3.72;;;;;;;28.58;18.31;100131.25;4936218;28;20098;-81
2023/06/13 07:10:37;;;;;;;4.28;2.47;;;;;;;28.29;17.25;100123.59;4934830;29;20043;-81
2023/06/13 07:13:03;;;;;;;9.70;1.60;;;;;;;28.08;17.42;100147.19;4918162;29;20567;-80
2023/06/13 07:15:30;;;;;;;6.07;1.63;;;;;;;28.43;17.29;100138.47;4936910;29;20145;-81
2023/06/13 07:17:56;;;;;;;3.70;1.35;;;;;;;28.87;16.91;100137.16;4934896;28;20519;-81
2023/06/13 07:20:22;;;;;;;8.68;1.80;;;;;;;28.40;17.50;100145.25;4936659;29;20134;-77
2023/06/13 07:22:51;;;;;;;10.77;2.20;;;;;;;29.18;16.68;100137.09;4935571;29;20539;-79
2023/06/13 07:25:21;;;;;;;4.32;1.67;;;;;;;29.46;16.49;100125.66;4959700;28;20050;-80
2023/06/13 07:27:47;;;;;;;13.02;2.42;;;;;;;30.44;16.13;100131.88;4943549;28;20057;-80
2023/06/13 07:30:12;;;;;;;8.88;2.35;;;;;;;31.18;14.95;100125.38;4936530;29;20452;-81
2023/06/13 07:32:38;;;;;;;7.75;1.70;;;;;;;32.04;14.29;100128.53;4933614;29;20138;-81
2023/06/13 07:35:04;;;;;;;3.35;1.45;;;;;;;32.09;13.84;100120.22;4895736;29;20131;-82
2023/06/13 07:37:32;;;;;;;10.30;3.33;;;;;;;33.24;13.94;100115.53;4865942;29;20057;-80
2023/06/13 07:39:58;;;;;;;11.75;2.95;;;;;;;34.79;13.12;100125.25;4867288;29;20063;-81
2023/06/13 07:42:27;;;;;;;7.13;2.15;;;;;;;35.46;11.57;100111.47;4898796;29;20056;-81
2023/06/13 07:44:56;;;;;;;;;;;;;;;35.83;11.74;100121.44;4896216;29;20139;-82
2023/06/13 07:47:23;;;;;;;9.25;1.77;;;;;;;36.31;10.66;100110.59;4890963;29;19920;-83
2023/06/13 07:49:49;;;;;;;7.25;1.52;;;;;;;38.36;9.45;100111.97;4876887;29;20053;-82
2023/06/13 07:52:15;;;;;;;10.18;2.58;;;;;;;39.03;9.16;100101.81;4878020;29;20056;-82
2023/06/13 07:54:40;;;;;;;5.78;1.80;;;;;;;40.57;7.88;100118.13;4895643;29;20382;-81
2023/06/13 07:57:07;;;;;;;7.72;2.45;;;;;;;40.75;8.59;100110.44;4879793;29;20060;-83
2023/06/13 07:59:33;;;;;;;10.07;2.00;;;;;;;42.95;6.99;100112.72;4879560;29;20048;-84
2023/06/13 08:01:59;;;;;;;9.40;1.90;;;;;;;43.49;6.55;100099.69;4895078;29;20057;-83
2023/06/13 08:04:29;;;;;;;8.88;2.03;;;;;;;45.19;5.75;100108.25;4895143;29;20168;-83
2023/06/13 08:06:55;;;;;;;4.03;1.63;;;;;;;45.51;5.48;100103.94;4919415;28;20090;-82
2023/06/13 08:09:22;;;;;;;3.55;1.48;;;;;;;44.90;5.64;100097.75;4939667;28;20051;-82
2023/06/13 08:11:49;;;;;;;10.32;1.58;;;;;;;46.34;5.48;100096.19;4906828;29;20150;-83
2023/06/13 08:14:15;;;;;;;6.25;1.85;;;;;;;47.01;4.96;100100.47;4951986;29;20047;-84
2023/06/13 08:16:46;;;;;;;6.80;2.13;;;;;;;47.04;4.88;100097.69;4952702;28;20490;-83
2023/06/13 08:19:14;;;;;;;9.77;1.55;;;;;;;46.51;4.52;100087.16;4975721;28;20108;-79
2023/06/13 08:21:40;;;;;;;8.93;1.83;;;;;;;47.18;4.89;100097.78;4995332;28;20049;-80
2023/06/13 08:24:06;;;;;;;5.68;1.25;;;;;;;47.67;4.38;100088.06;4996894;28;20046;-82
2023/06/13 08:26:32;;;;;;;5.90;1.52;;;;;;;47.42;4.02;100100.00;4952988;28;20053;-83
2023/06/13 08:29:03;;;;;;;6.93;1.55;;;;;;;48.10;4.44;100089.88;4995022;28;20050;-82
2023/06/13 08:31:31;;;;;;;6.05;1.70;;;;;;;49.51;3.90;100079.47;4963442;28;20037;-82
2023/06/13 08:34:00;;;;;;;9.02;1.70;;;;;;;50.75;3.04;100084.06;4995045;28;20046;-79
2023/06/13 08:36:26;;;;;;;8.80;1.70;;;;;;;50.71;3.40;100059.88;4957802;28;20053;-68
2023/06/13 08:38:55;;;;;;;10.52;1.67;;;;;;;50.00;3.26;100065.16;4990272;28;20061;-69
2023/06/13 08:41:21;;;;;;;7.03;1.63;;;;;;;50.28;3.49;100071.47;4952873;28;20058;-69
2023/06/13 08:43:48;;;;;;;3.72;2.53;;;;;;;50.05;4.09;100057.06;4953273;28;20117;-69
2023/06/13 08:46:14;;;;;;;6.65;1.67;;;;;;;50.03;3.01;100062.34;4969049;28;20074;-67
2023/06/13 08:48:41;;;;;;;9.93;1.98;;;;;;;50.41;2.87;100037.84;4953747;28;20537;-72
2023/06/13 08:51:13;;;;;;;5.43;1.40;;;;;;;47.70;4.14;100045.03;4918776;29;20419;-67
2023/06/13 08:53:49;;;;;;;6.15;1.70;;;;;;;48.31;3.39;100042.03;4935001;29;20051;-67
2023/06/13 08:56:16;;;;;;;9.55;1.60;;;;;;;48.37;3.64;100046.88;4951132;29;20058;-68
2023/06/13 08:58:44;;;;;;;6.60;1.50;;;;;;;48.59;3.87;100034.41;4934984;29;20053;-68
2023/06/13 09:01:10;;;;;;;4.53;1.55;;;;;;;49.33;3.15;100031.53;4903288;29;20062;-69
2023/06/13 09:03:37;;;;;;;10.63;1.90;;;;;;;51.12;2.76;100043.72;4919240;29;20495;-67
2023/06/13 09:06:04;;;;;;;8.65;1.70;;;;;;;52.23;2.17;100037.06;4950843;29;20082;-67
2023/06/13 09:08:32;;;;;;;8.43;2.15;;;;;;;51.79;2.42;100021.09;4971942;28;20471;-66
2023/06/13 09:10:59;;;;;;;12.52;1.70;;;;;;;51.22;2.87;100014.50;4989726;28;20057;-66
2023/06/13 09:13:27;;;;;;;10.48;1.95;;;;;;;51.74;2.42;100010.22;4975254;28;20061;-65
2023/06/13 09:15:54;;;;;;;3.05;1.50;;;;;;;48.63;3.04;100004.19;5009447;28;20352;-66
2023/06/13 09:18:21;;;;;;;4.25;1.60;;;;;;;47.64;3.68;100006.00;5009468;28;20045;-71
2023/06/13 09:20:47;;;;;;;4.03;1.40;;;;;;;48.24;3.31;100008.97;5008961;28;20050;-68
2023/06/13 09:23:16;;;;;;;6.80;1.88;;;;;;;49.35;3.02;100003.69;5028551;28;20049;-68
2023/06/13 09:25:45;;;;;;;3.85;1.70;;;;;;;48.32;3.35;100004.16;5029870;28;20061;-68
2023/06/13 09:28:26;;;;;;;4.60;1.40;;;;;;;46.17;4.32;99988.84;5046182;28;20136;-69
2023/06/13 09:30:52;;;;;;;6.50;1.40;;;;;;;46.35;4.16;99986.19;5030023;28;20049;-68
2023/06/13 09:33:21;;;;;;;6.45;1.77;;;;;;;48.56;3.49;99984.44;5029844;28;20103;-69
2023/06/13 09:35:50;;;;;;;4.60;1.50;;;;;;;50.10;2.66;99985.97;5029466;28;20055;-69
2023/06/13 09:38:21;;;;;;;9.23;2.10;;;;;;;51.81;1.93;99974.09;5029673;28;20049;-68
2023/06/13 09:40:47;;;;;;;4.93;1.70;;;;;;;52.79;2.24;99982.25;5013477;28;20140;-68
2023/06/13 09:43:13;;;;;;;7.13;1.70;;;;;;;53.84;1.81;99967.91;5016824;28;20132;-69
2023/06/13 09:45:39;;;;;;;10.18;2.22;;;;;;;54.22;1.42;99974.75;5032592;28;20037;-70
2023/06/13 09:48:06;;;;;;;6.85;1.50;;;;;;;54.38;1.24;99963.34;5032770;28;20059;-70
2023/06/13 09:50:32;;;;;;;4.88;1.50;;;;;;;54.19;1.44;99950.00;5000478;28;20498;-70
2023/06/13 09:52:58;;;;;;;4.78;1.80;;;;;;;54.54;1.43;99958.47;5033339;28;20060;-70
2023/06/13 09:55:24;;;;;;;6.57;1.63;;;;;;;54.97;1.53;99957.31;4985251;28;20053;-70
2023/06/13 09:57:53;;;;;;;7.63;1.70;;;;;;;55.46;1.10;99955.88;5001018;28;20048;-71
2023/06/13 10:00:21;;;;;;;6.88;1.80;;;;;;;55.62;1.08;99961.50;5000668;28;20107;-70
2023/06/13 10:02:46;;;;;;;6.60;1.60;;;;;;;55.73;1.21;99953.41;4984297;28;20053;-70
2023/06/13 10:05:13;;;;;;;10.82;1.80;;;;;;;56.12;0.98;99950.94;5000687;28;20041;-71
2023/06/13 10:07:39;;;;;;;9.60;1.48;;;;;;;53.12;1.52;99945.09;5000669;28;20060;-70
2023/06/13 10:10:07;;;;;;;3.95;1.65;;;;;;;53.12;1.98;99938.59;5000887;28;20128;-71
2023/06/13 10:12:33;;;;;;;9.35;1.40;;;;;;;53.60;1.68;99940.84;4983827;28;20465;-71
2023/06/13 10:15:01;;;;;;;4.43;1.58;;;;;;;52.90;1.65;99940.28;5012137;28;20502;-70
2023/06/13 10:17:33;;;;;;;4.82;1.58;;;;;;;53.85;1.51;99932.53;4949589;28;20060;-70
2023/06/13 10:20:04;;;;;;;7.60;1.70;;;;;;;55.06;1.25;99938.31;4947773;28;20498;-70
2023/06/13 10:22:31;;;;;;;4.05;1.33;;;;;;;54.54;1.22;99926.38;4922254;29;20483;-70
2023/06/13 10:24:57;;;;;;;3.70;1.60;;;;;;;55.03;1.10;99924.97;4953857;28;20047;-69
2023/06/13 10:27:25;;;;;;;9.23;1.27;;;;;;;55.36;0.97;99929.31;4954192;28;20090;-70
2023/06/13 10:30:23;;;;;;;8.63;1.60;;;;;;;55.43;1.06;99920.53;4937867;29;20054;-70
2023/06/13 10:33:04;;;;;;;5.10;1.17;;;;;;;54.88;1.09;99926.66;4922988;29;20059;-70
2023/06/13 10:35:49;;;;;;;5.95;1.60;;;;;;;54.06;1.50;99909.28;4953924;29;20502;-70
2023/06/13 10:38:33;;;;;;;3.42;1.55;;;;;;;53.08;1.64;99909.50;4937791;29;20127;-70
2023/06/13 10:41:12;;;;;;;2.55;1.42;;;;;;;53.20;1.21;99900.31;4953951;29;20062;-69
2023/06/13 10:43:45;;;;;;;4.15;1.52;;;;;;;53.61;1.24;99897.00;4953809;29;20047;-70
2023/06/13 10:46:11;;;;;;;4.70;1.48;;;;;;;53.86;1.23;99908.56;4960033;28;20093;-70
2023/06/13 10:48:57;;;;;;;9.55;1.67;;;;;;;53.16;1.19;99886.16;4943783;28;20054;-70
2023/06/13 10:51:26;;;;;;;5.15;1.35;;;;;;;51.83;1.60;99880.13;4976363;28;20097;-69
2023/06/13 10:54:14;;;;;;;6.30;1.60;;;;;;;50.59;2.38;99880.13;4985129;28;20092;-70
2023/06/13 10:56:43;;;;;;;3.35;1.60;;;;;;;49.61;2.53;99864.75;5016137;28;20051;-70
2023/06/13 10:59:16;;;;;;;6.43;2.05;;;;;;;49.90;2.87;99871.81;5032969;28;20132;-69
2023/06/13 11:01:43;;;;;;;4.40;1.70;;;;;;;49.87;2.49;99872.66;5013091;28;20068;-69
2023/06/13 11:04:20;;;;;;;6.03;1.77;;;;;;;49.02;3.25;99875.16;5015720;28;20067;-69
2023/06/13 11:06:50;;;;;;;2.75;1.40;;;;;;;47.70;3.97;99859.19;4999473;28;20346;-69
2023/06/13 11:09:20;;;;;;;9.85;2.30;;;;;;;45.40;4.50;99842.00;5016130;28;20066;-69
2023/06/13 11:11:49;;;;;;;3.17;1.73;;;;;;;43.60;5.20;99836.88;4999104;28;20107;-68
2023/06/13 11:14:19;;;;;;;5.78;1.80;;;;;;;41.90;5.72;99841.81;4999399;28;20049;-68
2023/06/13 11:16:46;;;;;;;4.35;1.60;;;;;;;40.76;6.96;99820.34;5031714;28;20049;-69
2023/06/13 11:19:21;;;;;;;3.80;2.05;;;;;;;40.63;6.89;99826.28;4999750;28;20125;-69
2023/06/13 11:22:11;;;;;;;7.78;1.90;;;;;;;40.18;7.76;99816.09;5015682;28;20048;-69
2023/06/13 11:24:39;;;;;;;;;;;;;;;39.10;8.12;99817.84;5015772;28;20049;-69
2023/06/13 11:27:07;;;;;;;5.88;2.08;;;;;;;38.22;8.74;99820.78;5026855;28;19922;-72
2023/06/13 11:29:37;;;;;;;5.28;1.80;;;;;;;38.05;8.95;99811.72;4978709;28;20049;-72
2023/06/13 11:32:08;;;;;;;4.05;1.83;;;;;;;38.36;9.10;99798.34;4978527;28;20061;-67
2023/06/13 11:34:42;;;;;;;7.25;2.20;;;;;;;36.98;8.79;99818.53;4995339;28;20125;-68
2023/06/13 11:37:32;;;;;;;5.10;2.00;;;;;;;35.16;9.93;99794.50;4978386;28;20049;-69